Etusivu
METAR-TAF:

METAR-TAF

Lentoasemat :

Huippuvuorten lentoasema

Longyearbyen, Norja

Leveyspiiri: 78-15N, Pituuspiiri: 015-28E, korkeus merenpinnasta: 2 m

Tämänhetkinen sää

Tämä raportti tehtiin 11 minuuttia sitten, kello 09.50 UTC
Tuuli 7 kn idästä/kaakosta
Lämpötila -1°C
Kosteus 80%
Ilmanpaine 1025 hPa
Näkyvyys 10 km tai enemmän
Muutamia pilviä 3100 ft:n korkeudessa
Hajonneita pilviä 4600 ft:n korkeudessa
heikkoa lumisadetta

METAR: ENSB 170950Z 12007KT 9999 -SN FEW031 BKN046 M01/M04 Q1025 RMK WIND 1400FT 12006KT

Aika: 11:01 (10:01 UTC)

Sääennuste

Ennuste voimassa 17. päivästä klo 06 UTC - 18. päivään klo 06 UTC
Tuuli 5 kn idästä/kaakosta
Näkyvyys 10 km tai enemmän
Muutamia pilviä 1500 ft:n korkeudessa
Hajonneita pilviä 3000 ft:n korkeudessa
Tulossa
17. päivästä klo 16 UTC - 17. päivään klo 18 UTC
Tuuli 15 kn idästä/kaakosta

TAF: ENSB 1706/1806 12005KT 9999 FEW015 BKN030 BECMG 1716/1718 12015KT

Säähavainnot ja -ennusteet yli 4000 lentoasemalta (METAR- ja TAF-raportit).

Käytössä olevat sääasemat on merkitty karttaan keltaisilla ja punaisilla pisteillä.

Aseta hiiri pisteen päälle nähdäksesi sääaseman nimen.

Klikkaa sitten nähdäksesi säähavainnot ja -ennusteet.

Kartan vaihtaminen: klikkaa mustalla rastilla varustettuja vihreitä pisteitä, niin voit zoomata sisään; viivalla varustettua vihreää pistettä, niin voit zoomata ulos tai vihreitä nuolia, niin pääset viereisille kartoille.


METAR-TAF: